Time;durP1;ratioP1;P1;durP2;ratioP2;P2;SDS_P1;SDS_P2;PMS_P1;PMS_P2;Temp;Humidity;BMP_temperature;BMP_pressure;BME280_temperature;BME280_humidity;BME280_pressure;Samples;Min_cycle;Max_cycle;Signal;HPM_P1;HPM_P2
2023/03/03 00:01:29;;;;;;;130.13;22.02;;;1.80;99.90;;;;;;5056173;28;20055;-41
2023/03/03 00:03:55;;;;;;;88.70;19.70;;;1.80;99.90;;;;;;5055618;28;20048;-42
2023/03/03 00:06:21;;;;;;;157.68;23.05;;;1.80;99.90;;;;;;5064130;28;20055;-36
2023/03/03 00:08:46;;;;;;;183.57;23.05;;;1.60;99.90;;;;;;5061929;28;20067;-44
2023/03/03 00:11:12;;;;;;;183.25;23.58;;;1.60;99.90;;;;;;5067215;28;20055;-38
2023/03/03 00:13:47;;;;;;;121.43;20.35;;;1.80;99.90;;;;;;5070544;28;20113;-44
2023/03/03 00:16:21;;;;;;;154.57;22.77;;;1.70;99.90;;;;;;5075266;28;20044;-39
2023/03/03 00:18:47;;;;;;;149.93;22.60;;;1.60;99.90;;;;;;5056427;28;20052;-37
2023/03/03 00:21:29;;;;;;;200.85;24.08;;;1.60;99.90;;;;;;5054118;28;20517;-43
2023/03/03 00:24:20;;;;;;;223.10;23.38;;;1.70;99.90;;;;;;5055498;28;20209;-41
2023/03/03 00:26:50;;;;;;;247.02;25.75;;;1.70;99.90;;;;;;5052011;28;20062;-39
2023/03/03 00:29:23;;;;;;;226.20;26.45;;;1.50;99.90;;;;;;5064047;28;20084;-42
2023/03/03 00:31:49;;;;;;;277.83;25.85;;;1.50;99.90;;;;;;5054447;28;20076;-44
2023/03/03 00:34:18;;;;;;;264.38;26.25;;;1.50;99.90;;;;;;5066688;28;20485;-43
2023/03/03 00:36:45;;;;;;;207.13;23.38;;;1.40;99.90;;;;;;5073491;28;20055;-39
2023/03/03 00:39:14;;;;;;;220.90;24.42;;;1.30;99.90;;;;;;5072860;28;20088;-42
2023/03/03 00:41:40;;;;;;;243.27;26.23;;;1.20;99.90;;;;;;5060179;28;20892;-39
2023/03/03 00:44:30;;;;;;;219.25;24.67;;;1.40;99.90;;;;;;5075247;28;20133;-43
2023/03/03 00:47:09;;;;;;;182.80;23.30;;;1.20;99.90;;;;;;5050702;28;20457;-42
2023/03/03 00:49:35;;;;;;;155.43;22.00;;;1.30;99.90;;;;;;5060797;28;20177;-42
2023/03/03 00:52:02;;;;;;;162.95;21.48;;;1.10;99.90;;;;;;5054124;28;20056;-41
2023/03/03 00:54:28;;;;;;;230.20;23.98;;;1.30;99.90;;;;;;5072263;28;20087;-38
2023/03/03 00:56:53;;;;;;;257.00;25.88;;;1.20;99.90;;;;;;5057267;28;20159;-38
2023/03/03 00:59:19;;;;;;;214.40;23.55;;;1.30;99.90;;;;;;5040039;28;20048;-38
2023/03/03 01:01:45;;;;;;;200.77;25.10;;;1.40;99.90;;;;;;5054383;28;20091;-40
2023/03/03 01:04:11;;;;;;;243.27;24.60;;;1.20;99.90;;;;;;5053592;28;20160;-41
2023/03/03 01:06:36;;;;;;;315.38;28.33;;;1.10;99.90;;;;;;5053838;28;20044;-43
2023/03/03 01:09:08;;;;;;;242.65;26.92;;;1.30;99.90;;;;;;5090428;27;20477;-42
2023/03/03 01:11:34;;;;;;;175.63;21.63;;;1.20;99.90;;;;;;5092012;28;20154;-45
2023/03/03 01:14:00;;;;;;;209.50;23.75;;;1.20;99.90;;;;;;5091381;28;20063;-46
2023/03/03 01:16:26;;;;;;;270.80;25.60;;;1.20;99.90;;;;;;5091405;28;20036;-40
2023/03/03 01:18:51;;;;;;;249.38;25.45;;;1.30;99.90;;;;;;5090793;28;20059;-39
2023/03/03 01:21:17;;;;;;;247.63;25.75;;;1.10;99.90;;;;;;5089963;28;20059;-39
2023/03/03 01:23:43;;;;;;;227.23;21.80;;;1.20;99.90;;;;;;5085975;28;20051;-39
2023/03/03 01:26:08;;;;;;;120.00;18.08;;;1.10;99.90;;;;;;5081492;28;20096;-43
2023/03/03 01:28:34;;;;;;;129.05;18.95;;;1.10;99.90;;;;;;5089882;28;20047;-43
2023/03/03 01:31:02;;;;;;;89.63;17.23;;;1.10;99.90;;;;;;5091060;28;20091;-37
2023/03/03 01:33:30;;;;;;;218.65;23.13;;;1.20;99.90;;;;;;5072690;28;20050;-38
2023/03/03 01:35:56;;;;;;;197.43;25.33;;;1.30;99.90;;;;;;5077754;28;20185;-42
2023/03/03 01:38:22;;;;;;;186.35;19.73;;;1.10;99.90;;;;;;5065411;28;20077;-42
2023/03/03 01:40:55;;;;;;;227.77;25.63;;;1.20;99.90;;;;;;5073598;28;20565;-37
2023/03/03 01:43:21;;;;;;;;;;;1.20;99.90;;;;;;5091550;28;20062;-43
2023/03/03 01:45:47;;;;;;;160.57;19.35;;;1.00;99.90;;;;;;5090422;28;19924;-42
2023/03/03 01:48:30;;;;;;;165.40;18.48;;;1.00;99.90;;;;;;5089449;28;20051;-40
2023/03/03 01:51:04;;;;;;;178.45;19.88;;;1.00;99.90;;;;;;5074162;28;20490;-38
2023/03/03 01:53:42;;;;;;;186.82;20.60;;;1.10;99.90;;;;;;5070840;28;20453;-45
2023/03/03 01:56:09;;;;;;;276.85;23.88;;;1.00;99.90;;;;;;5064882;28;20155;-45
2023/03/03 01:58:40;;;;;;;189.38;20.60;;;1.00;99.90;;;;;;5069288;28;20148;-47
2023/03/03 02:01:14;;;;;;;194.43;22.38;;;1.10;99.90;;;;;;5070642;28;20040;-37
2023/03/03 02:03:42;;;;;;;242.23;22.52;;;0.90;99.90;;;;;;5070071;28;20433;-36
2023/03/03 02:06:12;;;;;;;330.17;28.17;;;0.80;99.90;;;;;;5069424;28;20048;-38
2023/03/03 02:09:20;;;;;;;202.73;21.27;;;0.90;99.90;;;;;;5068583;28;20047;-40
2023/03/03 02:11:49;;;;;;;249.65;23.27;;;0.80;99.90;;;;;;5075351;28;20056;-43
2023/03/03 02:14:15;;;;;;;254.18;21.88;;;0.80;99.90;;;;;;5082184;28;20054;-42
2023/03/03 02:16:41;;;;;;;174.88;18.80;;;0.80;99.90;;;;;;5080873;28;20445;-50
2023/03/03 02:19:20;;;;;;;157.43;18.55;;;0.80;99.90;;;;;;5068588;28;20052;-42
2023/03/03 02:21:46;;;;;;;167.98;18.30;;;0.80;99.90;;;;;;5055986;28;20274;-36
2023/03/03 02:24:49;;;;;;;186.88;19.77;;;0.70;99.90;;;;;;5073571;28;20068;-41
2023/03/03 02:27:14;;;;;;;240.43;22.27;;;0.60;99.90;;;;;;5062411;28;20565;-38
2023/03/03 02:29:40;;;;;;;168.23;18.10;;;0.60;99.90;;;;;;5065639;28;20052;-41
2023/03/03 02:32:05;;;;;;;229.50;22.25;;;0.60;99.90;;;;;;5071755;28;20063;-39
2023/03/03 02:34:50;;;;;;;245.98;21.60;;;0.60;99.90;;;;;;5072583;28;20052;-42
2023/03/03 02:37:17;;;;;;;214.50;19.15;;;0.60;99.90;;;;;;5061496;28;20499;-43
2023/03/03 02:39:43;;;;;;;246.48;22.02;;;0.50;99.90;;;;;;5054763;28;20060;-40
2023/03/03 02:42:18;;;;;;;202.18;19.15;;;0.70;99.90;;;;;;5072528;28;20064;-45
2023/03/03 02:44:45;;;;;;;217.02;19.15;;;0.60;99.90;;;;;;5058898;28;20052;-43
2023/03/03 02:47:10;;;;;;;173.25;17.13;;;0.60;99.90;;;;;;5072282;28;20127;-38
2023/03/03 02:49:37;;;;;;;209.98;18.77;;;0.50;99.90;;;;;;5073120;28;20101;-41
2023/03/03 02:52:08;;;;;;;251.40;21.73;;;0.30;99.90;;;;;;5070275;28;20049;-41
2023/03/03 02:54:35;;;;;;;153.55;15.50;;;0.40;99.90;;;;;;5072896;28;20063;-51
2023/03/03 02:57:01;;;;;;;251.15;19.23;;;0.40;99.90;;;;;;5053418;28;20041;-44
2023/03/03 02:59:27;;;;;;;183.70;16.15;;;0.30;99.90;;;;;;5073227;28;20415;-44
2023/03/03 03:01:53;;;;;;;226.80;18.83;;;0.20;99.90;;;;;;5055880;28;20047;-39
2023/03/03 03:04:21;;;;;;;207.45;17.35;;;0.30;99.90;;;;;;5054851;28;20377;-38
2023/03/03 03:06:48;;;;;;;307.27;23.02;;;0.10;99.90;;;;;;5037567;28;20045;-41
2023/03/03 03:09:15;;;;;;;250.60;20.33;;;0.00;99.90;;;;;;5053323;28;20049;-41
2023/03/03 03:11:41;;;;;;;206.95;16.98;;;0.10;99.90;;;;;;5055469;28;20052;-39
2023/03/03 03:14:09;;;;;;;145.80;15.07;;;0.10;99.90;;;;;;5086891;28;20518;-43
2023/03/03 03:16:35;;;;;;;145.18;15.07;;;-0.10;99.90;;;;;;5054776;28;20150;-46
2023/03/03 03:19:02;;;;;;;176.23;14.93;;;-0.10;99.90;;;;;;5054989;28;20048;-41
2023/03/03 03:21:28;;;;;;;170.88;17.38;;;-0.10;99.90;;;;;;5050991;28;20063;-39
2023/03/03 03:23:54;;;;;;;203.40;17.98;;;-0.10;99.90;;;;;;5054775;28;20056;-45
2023/03/03 03:26:20;;;;;;;139.32;15.70;;;-0.30;99.90;;;;;;5053064;28;20555;-38
2023/03/03 03:28:49;;;;;;;122.00;14.88;;;-0.10;99.90;;;;;;5041313;28;20040;-36
2023/03/03 03:31:16;;;;;;;69.72;12.80;;;-0.30;99.90;;;;;;5053702;28;20055;-41
2023/03/03 03:33:42;;;;;;;93.78;13.60;;;-0.30;99.90;;;;;;5074299;28;20055;-40
2023/03/03 03:36:09;;;;;;;70.65;14.10;;;-0.20;99.90;;;;;;5072472;28;20048;-44
2023/03/03 03:38:38;;;;;;;80.90;12.98;;;-0.20;99.90;;;;;;5047664;28;20048;-46
2023/03/03 03:41:05;;;;;;;31.63;10.85;;;-0.20;99.90;;;;;;5062490;28;20040;-48
2023/03/03 03:43:30;;;;;;;36.80;12.50;;;-0.20;99.90;;;;;;5075149;28;20101;-43
2023/03/03 03:45:56;;;;;;;68.30;13.32;;;-0.20;99.90;;;;;;5060054;28;20048;-43
2023/03/03 03:48:22;;;;;;;65.35;13.20;;;-0.20;99.90;;;;;;5073671;28;20499;-41
2023/03/03 03:50:49;;;;;;;53.05;13.80;;;-0.20;99.90;;;;;;5074090;28;20422;-37
2023/03/03 03:53:16;;;;;;;46.75;12.63;;;-0.40;99.90;;;;;;5053428;28;20056;-40
2023/03/03 03:55:42;;;;;;;73.78;13.90;;;-0.20;99.90;;;;;;5062270;28;20052;-41
2023/03/03 03:58:10;;;;;;;52.50;13.07;;;-0.40;99.90;;;;;;5052598;28;20516;-37
2023/03/03 04:00:38;;;;;;;34.85;12.52;;;-0.40;99.90;;;;;;5068459;28;20143;-44
2023/03/03 04:03:04;;;;;;;25.25;11.65;;;-0.30;99.90;;;;;;5074731;28;20056;-47
2023/03/03 04:05:30;;;;;;;21.15;11.32;;;-0.30;99.90;;;;;;5073809;28;20487;-41
2023/03/03 04:07:55;;;;;;;14.82;10.52;;;-0.40;99.90;;;;;;5065344;28;20052;-38
2023/03/03 04:10:21;;;;;;;12.90;10.25;;;-0.30;99.90;;;;;;5053701;28;20057;-45
2023/03/03 04:12:46;;;;;;;12.95;9.02;;;-0.40;99.90;;;;;;5053631;28;20513;-42
2023/03/03 04:15:14;;;;;;;12.32;9.30;;;-0.60;99.90;;;;;;5053227;28;20052;-43
2023/03/03 04:17:40;;;;;;;12.30;9.27;;;-0.60;99.90;;;;;;5054185;28;20127;-41
2023/03/03 04:20:07;;;;;;;11.40;8.88;;;-0.60;99.90;;;;;;5053109;28;20048;-42
2023/03/03 04:22:34;;;;;;;11.52;9.23;;;-0.60;99.90;;;;;;5053145;28;20048;-40
2023/03/03 04:25:03;;;;;;;12.52;9.20;;;-0.60;99.90;;;;;;5067157;28;20055;-44
2023/03/03 04:27:33;;;;;;;12.13;9.07;;;-0.70;99.90;;;;;;5074330;28;20055;-42
2023/03/03 04:29:59;;;;;;;12.23;9.60;;;-0.70;99.90;;;;;;5072426;28;20143;-41
2023/03/03 04:32:25;;;;;;;12.68;10.20;;;-0.80;99.90;;;;;;5073601;28;20055;-44
2023/03/03 04:34:51;;;;;;;12.30;9.77;;;-0.80;99.90;;;;;;5073273;28;20173;-38
2023/03/03 04:37:16;;;;;;;12.73;9.43;;;-0.80;99.90;;;;;;5061616;28;20131;-43
2023/03/03 04:39:42;;;;;;;11.52;9.15;;;-0.80;99.90;;;;;;5040504;28;20084;-50
2023/03/03 04:42:08;;;;;;;11.77;9.40;;;-0.90;99.90;;;;;;5073721;28;20444;-39
2023/03/03 04:44:33;;;;;;;11.88;9.43;;;-0.80;99.90;;;;;;5073932;28;20063;-37
2023/03/03 04:46:59;;;;;;;12.68;9.07;;;-1.00;99.90;;;;;;5073123;28;20054;-40
2023/03/03 04:49:25;;;;;;;12.45;9.52;;;-0.90;99.90;;;;;;5072312;28;20101;-39
2023/03/03 04:51:51;;;;;;;13.38;9.80;;;-1.10;99.90;;;;;;5070847;28;20080;-42
2023/03/03 04:54:16;;;;;;;12.80;10.18;;;-1.00;99.90;;;;;;5064673;28;20056;-41
2023/03/03 04:56:42;;;;;;;13.10;10.18;;;-1.00;99.90;;;;;;5052994;28;20054;-44
2023/03/03 04:59:08;;;;;;;14.50;10.05;;;-1.10;99.90;;;;;;5052685;28;20589;-44
2023/03/03 05:01:34;;;;;;;14.23;9.70;;;-1.00;99.90;;;;;;5044968;28;20392;-45
2023/03/03 05:03:59;;;;;;;14.30;9.88;;;-1.00;99.90;;;;;;5047781;28;20056;-39
2023/03/03 05:06:25;;;;;;;13.43;10.35;;;-1.00;99.90;;;;;;5060983;28;20442;-39
2023/03/03 05:08:50;;;;;;;12.93;9.63;;;-1.00;99.90;;;;;;5071793;28;20048;-41
2023/03/03 05:11:16;;;;;;;12.50;9.35;;;-1.20;99.90;;;;;;5073702;28;20713;-39
2023/03/03 05:13:42;;;;;;;12.07;9.15;;;-1.20;99.90;;;;;;5072890;28;20152;-38
2023/03/03 05:16:08;;;;;;;12.13;9.00;;;-1.20;99.90;;;;;;5072520;28;20079;-42
2023/03/03 05:18:33;;;;;;;12.25;9.73;;;-1.30;99.90;;;;;;5072981;28;20113;-38
2023/03/03 05:20:59;;;;;;;12.95;9.32;;;-1.30;99.90;;;;;;5054943;28;20059;-44
2023/03/03 05:23:25;;;;;;;12.40;9.10;;;-1.20;99.90;;;;;;5072472;28;20067;-37
2023/03/03 05:25:51;;;;;;;11.98;9.20;;;-1.40;99.90;;;;;;5072372;28;20702;-39
2023/03/03 05:28:17;;;;;;;12.77;8.82;;;-1.20;99.90;;;;;;5069513;28;20047;-40
2023/03/03 05:30:43;;;;;;;9.85;8.10;;;-1.30;99.90;;;;;;5063631;28;20091;-40
2023/03/03 05:33:13;;;;;;;11.13;8.80;;;-1.30;99.90;;;;;;5073045;28;20150;-41
2023/03/03 05:35:38;;;;;;;11.88;9.20;;;-1.40;99.90;;;;;;5062250;28;20056;-44
2023/03/03 05:38:04;;;;;;;12.00;8.65;;;-1.40;99.90;;;;;;5040618;28;20048;-44
2023/03/03 05:40:30;;;;;;;12.13;9.27;;;-1.40;99.90;;;;;;5051456;28;20039;-41
2023/03/03 05:42:55;;;;;;;11.75;9.00;;;-1.30;99.90;;;;;;5072983;28;20044;-42
2023/03/03 05:45:23;;;;;;;11.80;9.68;;;-1.40;99.90;;;;;;5069972;28;20070;-44
2023/03/03 05:47:52;;;;;;;11.93;9.02;;;-1.30;99.90;;;;;;5071689;28;20040;-39
2023/03/03 05:50:21;;;;;;;13.55;9.52;;;-1.30;99.90;;;;;;5072654;28;20119;-39
2023/03/03 05:52:48;;;;;;;13.02;9.52;;;-1.30;99.90;;;;;;5057776;28;20054;-38
2023/03/03 05:55:14;;;;;;;12.45;9.82;;;-1.40;99.90;;;;;;5050528;28;20056;-39
2023/03/03 05:57:39;;;;;;;12.65;8.98;;;-1.30;99.90;;;;;;5051665;28;20056;-37
2023/03/03 06:00:07;;;;;;;12.77;9.23;;;-1.40;99.90;;;;;;5065846;28;20210;-44
2023/03/03 06:02:33;;;;;;;12.45;9.27;;;-1.50;99.90;;;;;;5074862;28;20052;-41
2023/03/03 06:04:59;;;;;;;17.80;10.57;;;-1.40;99.90;;;;;;5057407;28;20540;-42
2023/03/03 06:07:25;;;;;;;11.50;9.27;;;-1.30;99.90;;;;;;5075531;28;20533;-45
2023/03/03 06:09:51;;;;;;;10.82;8.38;;;-1.30;99.90;;;;;;5073882;28;20680;-40
2023/03/03 06:12:16;;;;;;;10.95;8.40;;;-1.50;99.90;;;;;;5075891;28;20452;-41
2023/03/03 06:14:42;;;;;;;10.45;8.55;;;-1.30;99.90;;;;;;5076446;28;20109;-42
2023/03/03 06:17:08;;;;;;;11.32;8.23;;;-1.50;99.90;;;;;;5075297;28;20371;-47
2023/03/03 06:19:34;;;;;;;10.35;8.02;;;-1.40;99.90;;;;;;5074611;28;20490;-37
2023/03/03 06:22:00;;;;;;;11.95;8.48;;;-1.40;99.90;;;;;;5076421;28;20055;-40
2023/03/03 06:24:29;;;;;;;9.13;7.13;;;-1.50;99.90;;;;;;5076781;28;20405;-41
2023/03/03 06:26:55;;;;;;;8.98;7.28;;;-1.40;99.90;;;;;;5075472;28;20553;-40
2023/03/03 06:29:21;;;;;;;10.90;8.32;;;-1.50;99.90;;;;;;5075628;28;20051;-43
2023/03/03 06:31:47;;;;;;;9.98;8.15;;;-1.40;99.90;;;;;;5076202;28;20044;-43
2023/03/03 06:34:12;;;;;;;11.02;8.65;;;-1.50;99.90;;;;;;5076267;28;20047;-41
2023/03/03 06:36:38;;;;;;;11.02;7.57;;;-1.30;99.90;;;;;;5068072;28;20064;-47
2023/03/03 06:39:04;;;;;;;12.23;8.65;;;-1.40;99.90;;;;;;5043775;28;20057;-47
2023/03/03 06:41:29;;;;;;;11.15;8.35;;;-1.30;99.90;;;;;;5070904;28;20048;-40
2023/03/03 06:43:57;;;;;;;10.68;8.38;;;-1.20;99.90;;;;;;5076240;28;20036;-38
2023/03/03 06:46:22;;;;;;;10.75;8.82;;;-1.30;99.90;;;;;;5075054;28;20048;-43
2023/03/03 06:48:48;;;;;;;11.75;9.10;;;-1.20;99.90;;;;;;5075938;28;20059;-36
2023/03/03 06:51:22;;;;;;;12.63;8.85;;;-1.10;99.90;;;;;;5075751;28;20085;-42
2023/03/03 06:53:51;;;;;;;13.73;9.25;;;-0.80;99.90;;;;;;5052471;28;20447;-39
2023/03/03 06:56:17;;;;;;;10.27;8.43;;;-0.50;99.90;;;;;;5048650;28;20163;-43
2023/03/03 06:58:43;;;;;;;11.30;9.25;;;-0.40;99.90;;;;;;5054852;28;20116;-41
2023/03/03 07:01:16;;;;;;;9.73;7.95;;;-0.20;99.90;;;;;;5055201;28;20052;-46
2023/03/03 07:03:42;;;;;;;9.13;7.45;;;0.00;99.90;;;;;;5054232;28;20053;-45
2023/03/03 07:06:24;;;;;;;10.25;8.55;;;0.10;99.90;;;;;;5041036;28;20057;-41
2023/03/03 07:08:51;;;;;;;9.73;8.23;;;0.30;99.90;;;;;;5034589;28;20384;-40
2023/03/03 07:11:20;;;;;;;12.50;8.85;;;0.40;99.90;;;;;;5045599;28;20036;-39
2023/03/03 07:13:52;;;;;;;10.70;8.60;;;0.50;99.90;;;;;;5044798;28;20578;-41
2023/03/03 07:16:23;;;;;;;11.38;8.65;;;0.50;99.90;;;;;;5043331;28;20155;-41
2023/03/03 07:18:59;;;;;;;10.57;8.13;;;0.40;99.90;;;;;;5036992;28;20044;-36
2023/03/03 07:21:33;;;;;;;11.65;7.63;;;0.30;99.90;;;;;;5053006;28;20048;-37
2023/03/03 07:24:00;;;;;;;12.90;7.97;;;0.30;99.90;;;;;;5041479;28;20095;-39
2023/03/03 07:26:29;;;;;;;8.52;7.47;;;0.20;99.90;;;;;;5034607;28;20041;-42
2023/03/03 07:29:13;;;;;;;8.50;7.43;;;0.10;99.90;;;;;;5052579;28;20462;-36
2023/03/03 07:31:40;;;;;;;;;;;0.10;99.90;;;;;;5036970;28;20491;-39
2023/03/03 07:34:23;;;;;;;10.40;6.97;;;0.10;99.90;;;;;;5053746;28;19928;-36
2023/03/03 07:37:01;;;;;;;11.02;8.35;;;0.00;99.90;;;;;;5039527;28;20487;-35
2023/03/03 07:39:35;;;;;;;10.48;8.15;;;0.00;99.90;;;;;;5039310;28;20481;-45
2023/03/03 07:42:26;;;;;;;9.23;7.97;;;0.10;99.90;;;;;;5062159;28;20443;-39
2023/03/03 07:44:54;;;;;;;11.30;8.25;;;0.30;99.90;;;;;;5072650;28;20063;-41
2023/03/03 07:47:29;;;;;;;12.85;9.02;;;0.50;99.90;;;;;;5074690;28;20048;-45
2023/03/03 07:49:59;;;;;;;12.32;9.50;;;0.60;99.90;;;;;;5074535;28;20328;-42
2023/03/03 07:52:39;;;;;;;13.18;10.73;;;0.80;99.90;;;;;;5059779;28;20091;-41
2023/03/03 07:55:38;;;;;;;11.00;9.32;;;1.10;99.90;;;;;;5041817;28;20152;-38
2023/03/03 07:58:16;;;;;;;10.00;8.57;;;1.40;99.90;;;;;;5036406;28;20048;-46
2023/03/03 08:00:44;;;;;;;9.80;7.30;;;1.70;99.90;;;;;;5047748;28;20114;-42
2023/03/03 08:03:19;;;;;;;9.02;7.70;;;1.80;99.90;;;;;;5043205;28;20116;-41
2023/03/03 08:05:49;;;;;;;9.98;7.82;;;2.00;99.90;;;;;;5071061;28;20059;-36
2023/03/03 08:08:17;;;;;;;8.93;7.88;;;2.20;99.90;;;;;;5070968;28;20056;-38
2023/03/03 08:10:47;;;;;;;10.40;7.80;;;2.40;99.90;;;;;;5063750;28;20441;-43
2023/03/03 08:13:19;;;;;;;10.38;7.97;;;2.50;99.90;;;;;;5070802;28;20194;-41
2023/03/03 08:15:48;;;;;;;11.45;7.93;;;2.70;99.90;;;;;;5039365;28;20081;-41
2023/03/03 08:18:22;;;;;;;9.13;8.07;;;2.80;99.90;;;;;;5069848;28;20082;-48
2023/03/03 08:20:53;;;;;;;9.02;7.65;;;2.90;99.90;;;;;;5069941;28;20064;-44
2023/03/03 08:23:20;;;;;;;9.85;8.32;;;3.00;99.90;;;;;;5069935;28;20510;-39
2023/03/03 08:25:47;;;;;;;9.88;7.25;;;3.20;99.90;;;;;;5062522;28;20131;-40
2023/03/03 08:28:13;;;;;;;10.43;7.68;;;3.30;99.90;;;;;;5049643;28;20542;-47
2023/03/03 08:30:39;;;;;;;9.82;8.50;;;3.40;99.90;;;;;;5050425;28;20072;-45
2023/03/03 08:33:05;;;;;;;9.95;8.63;;;3.50;99.90;;;;;;5053269;28;20061;-38
2023/03/03 08:35:31;;;;;;;11.18;8.70;;;3.60;99.90;;;;;;5052994;28;20465;-39
2023/03/03 08:37:56;;;;;;;10.27;8.10;;;3.70;99.90;;;;;;5049959;28;20536;-40
2023/03/03 08:40:22;;;;;;;10.70;8.45;;;3.80;99.90;;;;;;5051141;28;20488;-45
2023/03/03 08:42:48;;;;;;;10.65;7.78;;;3.80;99.90;;;;;;5053783;28;20141;-46
2023/03/03 08:45:14;;;;;;;8.18;6.70;;;3.90;99.90;;;;;;5053508;28;20045;-39
2023/03/03 08:47:41;;;;;;;10.25;7.05;;;4.00;99.90;;;;;;5053605;28;20049;-46
2023/03/03 08:50:08;;;;;;;9.32;6.68;;;4.10;99.90;;;;;;5054851;28;20048;-42
2023/03/03 08:52:34;;;;;;;10.77;6.55;;;4.20;99.90;;;;;;5052396;28;20044;-38
2023/03/03 08:55:01;;;;;;;9.45;6.25;;;4.30;99.90;;;;;;5051858;28;20101;-41
2023/03/03 08:57:27;;;;;;;8.02;5.13;;;4.40;99.90;;;;;;5050884;28;20042;-45
2023/03/03 08:59:53;;;;;;;11.45;6.85;;;4.60;99.90;;;;;;5052786;28;20398;-46
2023/03/03 09:02:18;;;;;;;10.98;5.65;;;4.80;99.90;;;;;;5052539;28;20507;-45
2023/03/03 09:04:44;;;;;;;12.45;7.28;;;4.80;99.90;;;;;;5053535;28;20132;-42
2023/03/03 09:07:10;;;;;;;11.20;6.20;;;4.90;99.90;;;;;;5056617;28;20056;-39
2023/03/03 09:09:39;;;;;;;22.35;12.05;;;5.00;99.90;;;;;;5052549;28;20732;-37
2023/03/03 09:12:18;;;;;;;22.48;12.38;;;5.20;99.90;;;;;;5053416;28;20115;-48
2023/03/03 09:14:44;;;;;;;22.52;8.55;;;5.40;99.90;;;;;;5052857;28;20563;-45
2023/03/03 09:17:31;;;;;;;15.95;8.05;;;5.50;99.90;;;;;;5057715;28;20339;-43
2023/03/03 09:20:01;;;;;;;10.30;6.38;;;5.70;99.90;;;;;;5052734;28;20078;-43
2023/03/03 09:22:28;;;;;;;15.88;6.38;;;5.80;99.90;;;;;;5053900;28;20091;-43
2023/03/03 09:24:57;;;;;;;9.23;5.10;;;5.90;99.90;;;;;;5055761;28;20981;-38
2023/03/03 09:27:33;;;;;;;5.07;2.08;;;6.10;99.90;;;;;;5054616;28;20044;-41
2023/03/03 09:30:27;;;;;;;6.88;2.58;;;6.20;99.90;;;;;;5054116;28;20045;-38
2023/03/03 09:32:55;;;;;;;7.20;2.13;;;6.40;99.90;;;;;;5055466;28;20052;-43
2023/03/03 09:35:36;;;;;;;6.35;2.38;;;6.60;99.90;;;;;;5055107;28;20058;-46
2023/03/03 09:38:26;;;;;;;7.82;2.45;;;6.80;99.90;;;;;;5054378;28;20060;-42
2023/03/03 09:41:04;;;;;;;8.48;3.28;;;6.80;99.90;;;;;;5054554;28;20825;-44
2023/03/03 09:43:48;;;;;;;5.50;2.92;;;6.90;99.90;;;;;;5064648;28;20047;-44
2023/03/03 09:46:35;;;;;;;7.75;3.30;;;7.00;99.90;;;;;;5076930;28;20503;-44
2023/03/03 09:49:23;;;;;;;9.82;3.30;;;7.10;99.90;;;;;;5077666;28;20468;-44
2023/03/03 09:52:07;;;;;;;6.68;3.33;;;7.20;99.90;;;;;;5074768;28;20051;-36
2023/03/03 09:54:35;;;;;;;11.25;4.72;;;7.30;99.90;;;;;;5069856;28;20048;-40
2023/03/03 09:57:10;;;;;;;10.43;5.63;;;7.30;99.90;;;;;;5051483;28;20176;-41
2023/03/03 10:00:00;;;;;;;13.45;4.50;;;7.30;99.90;;;;;;5062524;28;20058;-41
2023/03/03 10:02:50;;;;;;;7.75;4.55;;;7.30;99.90;;;;;;5076484;28;20128;-39
2023/03/03 10:05:45;;;;;;;8.60;4.55;;;7.30;99.90;;;;;;5076375;28;20144;-38
2023/03/03 10:08:24;;;;;;;10.35;4.32;;;7.50;99.90;;;;;;5063140;28;20057;-42
2023/03/03 10:11:21;;;;;;;12.02;4.50;;;7.50;99.90;;;;;;5058111;28;20491;-46
2023/03/03 10:13:59;;;;;;;8.55;3.30;;;7.90;99.90;;;;;;5057175;28;20404;-45
2023/03/03 10:16:40;;;;;;;6.93;1.83;;;8.10;99.90;;;;;;5065335;28;20207;-43
2023/03/03 10:19:40;;;;;;;4.38;1.27;;;8.10;99.90;;;;;;5043033;28;20109;-40
2023/03/03 10:22:23;;;;;;;4.57;1.45;;;8.10;99.90;;;;;;5042309;28;20159;-43
2023/03/03 10:25:17;;;;;;;5.07;1.58;;;7.90;99.90;;;;;;5039134;28;20545;-40
2023/03/03 10:28:17;;;;;;;4.18;1.50;;;7.80;99.90;;;;;;5046468;28;20049;-41
2023/03/03 10:31:18;;;;;;;3.60;1.10;;;7.70;99.90;;;;;;5052506;28;20106;-45
2023/03/03 10:34:21;;;;;;;4.68;1.33;;;7.70;99.90;;;;;;5035571;28;20179;-41
2023/03/03 10:36:54;;;;;;;4.65;1.60;;;7.60;99.90;;;;;;5054647;28;20602;-38
2023/03/03 10:39:39;;;;;;;7.25;1.38;;;7.70;99.90;;;;;;5048451;28;20057;-40
2023/03/03 10:42:42;;;;;;;3.03;1.10;;;7.70;99.90;;;;;;5061413;28;20051;-43
2023/03/03 10:45:16;;;;;;;5.15;1.45;;;7.70;99.90;;;;;;5045285;28;20090;-40
2023/03/03 10:48:11;;;;;;;2.42;1.42;;;7.80;99.90;;;;;;5072252;28;20071;-39
2023/03/03 10:51:10;;;;;;;6.10;1.52;;;7.80;99.90;;;;;;5044533;28;20060;-43
2023/03/03 10:53:39;;;;;;;5.82;1.63;;;7.80;99.90;;;;;;5058297;28;20079;-45
2023/03/03 10:56:34;;;;;;;4.50;1.52;;;7.90;99.90;;;;;;5061858;28;20083;-48
2023/03/03 10:59:24;;;;;;;3.42;1.10;;;7.80;99.90;;;;;;5058789;28;20118;-41
2023/03/03 11:02:16;;;;;;;2.65;1.23;;;7.90;99.90;;;;;;5072617;28;20054;-44
2023/03/03 11:04:50;;;;;;;3.10;1.27;;;8.00;99.90;;;;;;5049118;28;20169;-40
2023/03/03 11:07:37;;;;;;;6.18;1.38;;;8.00;99.90;;;;;;5067316;28;20052;-43
2023/03/03 11:10:27;;;;;;;4.95;2.08;;;8.10;99.90;;;;;;5056254;28;20088;-45
2023/03/03 11:13:23;;;;;;;4.93;1.77;;;8.30;99.90;;;;;;5076771;28;20056;-45
2023/03/03 11:16:20;;;;;;;2.63;1.15;;;8.30;99.90;;;;;;5086734;28;20100;-44
2023/03/03 11:19:14;;;;;;;5.93;2.20;;;8.30;99.90;;;;;;5061734;28;20055;-46
2023/03/03 11:22:02;;;;;;;3.65;1.80;;;8.40;99.90;;;;;;5052095;28;20785;-44
2023/03/03 11:24:52;;;;;;;6.78;1.63;;;8.60;99.90;;;;;;5047335;28;20135;-44
2023/03/03 11:27:31;;;;;;;5.93;1.50;;;8.70;99.90;;;;;;5041876;28;20298;-41
2023/03/03 11:30:19;;;;;;;5.32;1.42;;;8.50;99.90;;;;;;5052799;28;20512;-48
2023/03/03 11:32:48;;;;;;;5.32;1.50;;;8.30;99.90;;;;;;5054498;28;20534;-42
2023/03/03 11:35:34;;;;;;;5.80;1.25;;;8.20;99.90;;;;;;5052411;28;20079;-40
2023/03/03 11:38:23;;;;;;;4.68;1.35;;;8.30;99.90;;;;;;5050170;28;20052;-42
2023/03/03 11:41:14;;;;;;;5.15;1.27;;;8.20;99.90;;;;;;5057377;28;20140;-39
2023/03/03 11:44:10;;;;;;;4.03;1.13;;;8.30;99.90;;;;;;5073095;28;20062;-41
2023/03/03 11:46:39;;;;;;;2.90;0.98;;;8.30;99.90;;;;;;5072979;28;20055;-40
2023/03/03 11:49:25;;;;;;;5.40;1.30;;;8.40;99.90;;;;;;5073765;28;20506;-46
2023/03/03 11:52:15;;;;;;;5.57;1.60;;;8.70;99.90;;;;;;5040958;28;20053;-43
2023/03/03 11:54:49;;;;;;;6.00;1.50;;;9.00;99.90;;;;;;5053324;28;20052;-43
2023/03/03 11:57:33;;;;;;;;;;;9.20;99.90;;;;;;5049216;28;20137;-49
2023/03/03 12:00:28;;;;;;;3.22;1.25;;;9.00;99.90;;;;;;5053126;28;20019;-43
2023/03/03 12:03:15;;;;;;;4.93;1.27;;;8.80;99.90;;;;;;5061063;28;20418;-39
2023/03/03 12:06:07;;;;;;;2.70;1.15;;;8.80;99.90;;;;;;5070447;28;20044;-37
2023/03/03 12:08:51;;;;;;;6.38;1.52;;;8.80;99.90;;;;;;5054107;28;20048;-44
2023/03/03 12:11:31;;;;;;;1.92;1.00;;;8.90;99.90;;;;;;5072969;28;20097;-46
2023/03/03 12:14:09;;;;;;;4.82;1.33;;;9.00;99.90;;;;;;5073245;28;20334;-43
2023/03/03 12:16:55;;;;;;;3.65;1.40;;;8.80;99.90;;;;;;5073434;28;20078;-43
2023/03/03 12:19:42;;;;;;;3.15;1.52;;;8.70;99.90;;;;;;5073393;28;20087;-42
2023/03/03 12:22:33;;;;;;;4.57;1.02;;;8.60;99.90;;;;;;5072560;28;20048;-47
2023/03/03 12:25:22;;;;;;;4.57;2.03;;;8.60;99.90;;;;;;5073002;28;20067;-40
2023/03/03 12:28:14;;;;;;;4.55;1.83;;;8.50;99.90;;;;;;5073197;28;20051;-43
2023/03/03 12:30:58;;;;;;;6.45;1.48;;;8.70;99.90;;;;;;5086501;27;20062;-44
2023/03/03 12:33:27;;;;;;;3.13;1.42;;;8.90;99.90;;;;;;5071695;28;20689;-40
2023/03/03 12:36:06;;;;;;;5.93;1.58;;;9.10;99.90;;;;;;5072842;28;20087;-44
2023/03/03 12:38:59;;;;;;;5.50;1.67;;;9.40;99.90;;;;;;5035142;28;20120;-41
2023/03/03 12:41:36;;;;;;;4.50;1.52;;;9.50;99.90;;;;;;5050092;28;20083;-47
2023/03/03 12:44:35;;;;;;;7.15;1.42;;;9.30;99.90;;;;;;5065494;28;20554;-44
2023/03/03 12:47:32;;;;;;;6.05;1.10;;;8.80;99.90;;;;;;5052128;28;20169;-46
2023/03/03 12:50:09;;;;;;;6.38;1.20;;;8.70;99.90;;;;;;5048226;28;20155;-47
2023/03/03 12:53:25;;;;;;;7.55;1.30;;;8.80;99.90;;;;;;5063684;28;20048;-45
2023/03/03 12:55:54;;;;;;;7.63;2.17;;;9.00;99.90;;;;;;5037889;28;20546;-41
2023/03/03 12:58:56;;;;;;;15.70;6.32;;;8.90;99.90;;;;;;5030039;28;20526;-43
2023/03/03 13:01:57;;;;;;;6.32;1.20;;;9.00;99.90;;;;;;5030631;28;20056;-47
2023/03/03 13:04:26;;;;;;;7.95;1.83;;;8.90;99.90;;;;;;5029221;28;20044;-40
2023/03/03 13:06:54;;;;;;;8.93;2.35;;;8.80;99.90;;;;;;5029316;28;20520;-43
2023/03/03 13:09:52;;;;;;;6.45;1.55;;;8.80;99.90;;;;;;5030519;28;20049;-46
2023/03/03 13:12:26;;;;;;;5.53;1.60;;;8.80;99.90;;;;;;5030036;28;20531;-45